Time;durP1;ratioP1;P1;durP2;ratioP2;P2;SDS_P1;SDS_P2;PMS_P1;PMS_P2;Temp;Humidity;BMP_temperature;BMP_pressure;BME280_temperature;BME280_humidity;BME280_pressure;Samples;Min_cycle;Max_cycle;Signal;HPM_P1;HPM_P2
2023/01/03 00:00:35;;;;;;;13.48;6.15;;;;;;;2.67;100.00;101355.23;1740837;80;21424;-90
2023/01/03 00:03:20;;;;;;;12.70;5.72;;;;;;;2.66;100.00;101349.55;1743067;80;21698;-92
2023/01/03 00:06:07;;;;;;;13.65;6.28;;;;;;;2.70;100.00;101344.06;1691061;82;21015;-92
2023/01/03 00:08:53;;;;;;;11.25;6.30;;;;;;;2.67;100.00;101335.00;1678268;84;21054;-90
2023/01/03 00:14:42;;;;;;;12.55;6.58;;;;;;;2.54;100.00;101339.86;1734979;80;21032;-89
2023/01/03 00:17:27;;;;;;;15.25;6.60;;;;;;;2.71;100.00;101332.21;1713784;80;20883;-91
2023/01/03 00:20:11;;;;;;;13.48;6.97;;;;;;;2.68;100.00;101331.28;1681394;83;21462;-91
2023/01/03 00:22:58;;;;;;;14.40;6.62;;;;;;;2.69;100.00;101331.58;1712151;82;21013;-90
2023/01/03 00:25:43;;;;;;;17.35;7.37;;;;;;;2.67;100.00;101333.65;1701145;81;21434;-90
2023/01/03 00:28:28;;;;;;;17.15;7.78;;;;;;;2.66;100.00;101325.25;1671196;83;20993;-91
2023/01/03 00:31:13;;;;;;;14.55;7.60;;;;;;;2.63;100.00;101333.24;1728962;82;21109;-89
2023/01/03 00:33:58;;;;;;;15.63;7.78;;;;;;;2.62;100.00;101339.69;1710244;81;21002;-90
2023/01/03 00:36:43;;;;;;;15.53;7.25;;;;;;;2.57;100.00;101331.34;1733553;81;21149;-91
2023/01/03 00:39:28;;;;;;;15.00;7.80;;;;;;;2.76;100.00;101326.50;1725566;81;21144;-90
2023/01/03 00:42:13;;;;;;;12.93;6.72;;;;;;;2.74;100.00;101331.80;1737819;80;21108;-89
2023/01/03 00:44:57;;;;;;;13.05;6.37;;;;;;;2.73;100.00;101326.09;1715766;81;21121;-92
2023/01/03 00:47:42;;;;;;;19.48;8.20;;;;;;;2.67;100.00;101324.20;1710506;82;21114;-92
2023/01/03 00:50:27;;;;;;;15.70;7.75;;;;;;;2.57;100.00;101318.72;1698464;83;20982;-90
2023/01/03 00:53:11;;;;;;;15.40;7.80;;;;;;;2.55;100.00;101319.43;1663177;83;21068;-90
2023/01/03 00:56:06;;;;;;;25.55;7.95;;;;;;;2.55;100.00;101312.69;1627038;86;21002;-90
2023/01/03 00:58:51;;;;;;;17.50;8.45;;;;;;;2.58;100.00;101312.27;1702459;83;21459;-91
2023/01/03 01:01:40;;;;;;;19.32;7.92;;;;;;;2.62;100.00;101314.55;1711367;81;20975;-91
2023/01/03 01:04:30;;;;;;;23.75;8.15;;;;;;;2.64;100.00;101313.30;1688467;83;21068;-92
2023/01/03 01:07:16;;;;;;;15.00;7.45;;;;;;;2.64;100.00;101309.78;1676692;83;20992;-92
2023/01/03 01:10:00;;;;;;;20.50;8.38;;;;;;;2.64;100.00;101300.33;1673124;85;21031;-90
2023/01/03 01:12:46;;;;;;;18.17;8.35;;;;;;;2.77;100.00;101298.49;1665180;84;21011;-90
2023/01/03 01:15:32;;;;;;;20.92;8.78;;;;;;;2.67;100.00;101301.27;1670331;84;21066;-91
2023/01/03 01:18:17;;;;;;;21.62;10.70;;;;;;;2.50;100.00;101297.63;1652712;85;21051;-89
2023/01/03 01:21:06;;;;;;;23.47;11.38;;;;;;;2.58;100.00;101296.08;1723563;81;21066;-89
2023/01/03 01:23:51;;;;;;;22.82;11.90;;;;;;;2.56;100.00;101286.53;1722050;81;20974;-91
2023/01/03 01:26:35;;;;;;;20.02;11.60;;;;;;;2.66;100.00;101273.98;1703504;80;21452;-90
2023/01/03 01:29:20;;;;;;;22.25;11.53;;;;;;;2.65;100.00;101273.68;1699583;80;21901;-89
2023/01/03 01:32:05;;;;;;;22.37;11.95;;;;;;;2.63;100.00;101265.78;1678113;82;21004;-90
2023/01/03 01:34:50;;;;;;;26.82;13.10;;;;;;;2.62;100.00;101261.44;1700531;84;21055;-90
2023/01/03 01:37:35;;;;;;;26.60;12.47;;;;;;;2.64;100.00;101253.11;1692256;82;21523;-91
2023/01/03 01:40:20;;;;;;;30.88;15.38;;;;;;;2.63;100.00;101252.81;1684053;84;21686;-93
2023/01/03 01:46:28;;;;;;;36.55;14.85;;;;;;;2.61;100.00;101238.69;1692741;83;21032;-89
2023/01/03 01:49:18;;;;;;;29.32;12.18;;;;;;;2.63;100.00;101227.17;1692675;82;21071;-91
2023/01/03 01:52:03;;;;;;;25.65;11.20;;;;;;;2.55;100.00;101226.87;1693072;81;21007;-90
2023/01/03 01:54:49;;;;;;;20.12;10.05;;;;;;;2.46;100.00;101218.13;1672121;81;21570;-91
2023/01/03 01:57:34;;;;;;;25.45;11.50;;;;;;;2.43;100.00;101211.81;1663677;84;20948;-91
2023/01/03 02:00:20;;;;;;;23.52;10.93;;;;;;;2.39;100.00;101211.91;1759086;80;21449;-93
2023/01/03 02:03:06;;;;;;;24.35;11.05;;;;;;;2.35;100.00;101216.89;1758890;81;20967;-92
2023/01/03 02:05:52;;;;;;;19.80;8.80;;;;;;;2.31;100.00;101208.89;1747039;81;20966;-92
2023/01/03 02:08:38;;;;;;;21.20;8.88;;;;;;;2.32;100.00;101205.67;1748060;80;20971;-92
2023/01/03 02:11:43;;;;;;;24.05;8.63;;;;;;;2.26;100.00;101200.59;1717194;82;21007;-90
2023/01/03 02:15:07;;;;;;;21.20;8.00;;;;;;;2.16;100.00;101190.73;1753220;80;21422;-91
2023/01/03 02:18:20;;;;;;;19.67;7.83;;;;;;;2.12;100.00;101191.64;1744789;80;20970;-91
2023/01/03 02:21:29;;;;;;;22.07;10.18;;;;;;;2.08;100.00;101189.06;1758987;80;20971;-91
2023/01/03 02:24:43;;;;;;;19.55;8.93;;;;;;;2.06;100.00;101194.34;1757181;81;20947;-90
2023/01/03 02:27:40;;;;;;;19.25;8.55;;;;;;;2.00;100.00;101181.15;1697455;82;21035;-90
2023/01/03 02:30:38;;;;;;;19.85;8.43;;;;;;;1.89;100.00;101180.42;1699243;82;21074;-91
2023/01/03 02:33:40;;;;;;;19.35;8.60;;;;;;;1.91;100.00;101184.57;1687795;84;21506;-92
2023/01/03 02:36:51;;;;;;;14.90;8.05;;;;;;;1.88;100.00;101174.20;1678759;83;21078;-91
2023/01/03 02:39:58;;;;;;;20.43;7.30;;;;;;;1.83;100.00;101167.25;1705686;82;21097;-92
2023/01/03 02:42:57;;;;;;;18.92;7.72;;;;;;;1.83;100.00;101165.05;1701659;83;21042;-91
2023/01/03 02:46:01;;;;;;;18.20;7.87;;;;;;;1.79;100.00;101158.42;1710465;82;21078;-90
2023/01/03 02:48:54;;;;;;;17.82;8.45;;;;;;;1.81;100.00;101163.92;1669592;83;21542;-92
2023/01/03 02:51:48;;;;;;;15.83;7.00;;;;;;;1.99;100.00;101161.98;1675522;82;21181;-93
2023/01/03 02:54:37;;;;;;;15.50;7.05;;;;;;;2.05;100.00;101157.62;1756620;80;20983;-90
2023/01/03 02:57:32;;;;;;;16.95;8.33;;;;;;;2.07;100.00;101155.03;1744168;81;21136;-92
2023/01/03 03:00:21;;;;;;;13.43;6.42;;;;;;;2.05;100.00;101155.78;1757602;81;20981;-92
2023/01/03 03:03:12;;;;;;;16.10;6.78;;;;;;;1.95;100.00;101152.63;1674286;84;21075;-91
2023/01/03 03:06:17;;;;;;;18.85;7.17;;;;;;;1.99;100.00;101158.46;1693738;84;21059;-93
2023/01/03 03:09:03;;;;;;;16.60;7.20;;;;;;;1.95;100.00;101155.33;1696233;84;21035;-92
2023/01/03 03:14:50;;;;;;;;;;;;;;;1.94;100.00;101153.68;1702845;83;21071;-91
2023/01/03 03:17:36;;;;;;;14.55;6.72;;;;;;;1.89;100.00;101149.42;1697913;84;20178;-91
2023/01/03 03:26:25;;;;;;;18.32;7.97;;;;;;;1.89;100.00;101154.29;1688619;83;21003;-92
2023/01/03 03:29:14;;;;;;;13.93;7.05;;;;;;;1.70;100.00;101149.69;1756680;80;21104;-90
2023/01/03 03:31:59;;;;;;;15.93;7.78;;;;;;;1.68;100.00;101150.41;1714232;82;20955;-92
2023/01/03 03:34:43;;;;;;;17.23;7.20;;;;;;;1.65;100.00;101151.64;1723715;81;21053;-91
2023/01/03 03:37:30;;;;;;;16.25;7.22;;;;;;;1.60;100.00;101150.07;1711628;82;21434;-90
2023/01/03 03:46:41;;;;;;;15.32;6.85;;;;;;;1.57;100.00;101138.36;1716824;83;21034;-91
2023/01/03 03:49:38;;;;;;;12.85;6.83;;;;;;;1.60;100.00;101139.30;1754414;80;27511;-91
2023/01/03 03:52:28;;;;;;;16.40;7.40;;;;;;;1.58;100.00;101137.31;1757416;79;20947;-92
2023/01/03 03:55:26;;;;;;;13.88;7.60;;;;;;;1.61;100.00;101143.67;1755205;80;21423;-91
2023/01/03 03:58:18;;;;;;;15.15;7.33;;;;;;;1.66;100.00;101142.54;1748132;81;21448;-91
2023/01/03 04:01:03;;;;;;;16.07;7.87;;;;;;;1.69;100.00;101135.39;1754372;81;21426;-90
2023/01/03 04:03:49;;;;;;;17.20;8.68;;;;;;;1.69;100.00;101125.95;1720189;83;21460;-91
2023/01/03 04:06:37;;;;;;;16.67;8.78;;;;;;;1.75;100.00;101124.30;1683740;82;21073;-91
2023/01/03 04:09:22;;;;;;;30.30;15.05;;;;;;;1.87;100.00;101123.19;1708352;82;21058;-91
2023/01/03 04:12:07;;;;;;;21.33;11.85;;;;;;;1.96;100.00;101130.58;1642897;85;21093;-91
2023/01/03 04:14:52;;;;;;;20.88;9.73;;;;;;;2.03;100.00;101126.84;1696710;83;21110;-91
2023/01/03 04:17:37;;;;;;;21.33;10.30;;;;;;;2.26;100.00;101125.61;1698251;81;21024;-91
2023/01/03 04:20:21;;;;;;;18.15;9.45;;;;;;;2.58;100.00;101134.18;1693843;82;21532;-90
2023/01/03 04:23:06;;;;;;;19.12;9.33;;;;;;;2.94;100.00;101124.77;1754519;81;21426;-92
2023/01/03 04:25:51;;;;;;;26.25;12.55;;;;;;;3.25;100.00;101124.55;1759973;80;20994;-92
2023/01/03 04:28:38;;;;;;;21.07;9.58;;;;;;;3.57;100.00;101121.37;1757498;80;20919;-93
2023/01/03 04:31:23;;;;;;;18.85;9.53;;;;;;;4.02;100.00;101120.45;1758596;81;21076;-92
2023/01/03 04:34:07;;;;;;;20.15;10.03;;;;;;;4.29;100.00;101113.77;1753411;81;20927;-89
2023/01/03 04:36:52;;;;;;;18.20;9.40;;;;;;;4.48;100.00;101109.78;1754846;81;21006;-91
2023/01/03 04:39:37;;;;;;;17.98;9.40;;;;;;;4.61;100.00;101105.58;1717327;82;21019;-90
2023/01/03 04:45:24;;;;;;;;;;;;;;;4.87;100.00;101089.58;1759798;80;20980;-91
2023/01/03 04:48:09;;;;;;;20.23;8.55;;;;;;;4.97;100.00;101084.99;1759102;80;20166;-91
2023/01/03 04:50:55;;;;;;;21.62;9.58;;;;;;;5.05;100.00;101088.73;1751445;80;21026;-91
2023/01/03 04:53:40;;;;;;;17.60;9.43;;;;;;;5.07;100.00;101074.45;1758697;81;21010;-90
2023/01/03 04:56:31;;;;;;;20.48;9.48;;;;;;;5.23;100.00;101078.40;1760228;79;21221;-90
2023/01/03 04:59:16;;;;;;;20.82;10.05;;;;;;;5.29;100.00;101075.30;1747314;81;20959;-90
2023/01/03 05:02:02;;;;;;;20.12;9.75;;;;;;;5.34;100.00;101073.58;1686923;82;21030;-91
2023/01/03 05:04:46;;;;;;;18.62;9.23;;;;;;;5.44;100.00;101071.67;1693383;80;21026;-92
2023/01/03 05:07:32;;;;;;;18.00;8.78;;;;;;;5.44;100.00;101062.18;1694899;83;21022;-91
2023/01/03 05:10:17;;;;;;;20.43;9.95;;;;;;;5.52;100.00;101060.49;1759495;80;20974;-90
2023/01/03 05:13:04;;;;;;;17.95;9.50;;;;;;;5.51;100.00;101061.53;1756714;81;21022;-90
2023/01/03 05:15:48;;;;;;;18.42;8.78;;;;;;;5.50;100.00;101055.82;1756610;80;20982;-91
2023/01/03 05:18:33;;;;;;;18.12;9.15;;;;;;;5.68;100.00;101056.81;1708396;83;20983;-90
2023/01/03 05:27:26;;;;;;;;;;;;;;;5.72;100.00;101058.02;1754097;79;20887;-90
2023/01/03 05:30:11;;;;;;;17.60;8.93;;;;;;;5.75;100.00;101056.19;1759254;80;20814;-91
2023/01/03 05:32:56;;;;;;;16.55;8.20;;;;;;;5.69;100.00;101050.35;1718447;82;20972;-91
2023/01/03 05:35:46;;;;;;;18.52;9.40;;;;;;;5.62;100.00;101046.38;1747889;81;21034;-90
2023/01/03 05:38:31;;;;;;;15.85;8.53;;;;;;;5.67;100.00;101048.39;1755972;79;21388;-91
2023/01/03 05:41:58;;;;;;;17.70;8.83;;;;;;;5.76;100.00;101050.54;1708313;80;21352;-90
2023/01/03 05:44:09;;;;;;;16.10;8.73;;;;;;;5.82;100.00;101054.20;1708154;83;21023;-91
2023/01/03 05:46:59;;;;;;;19.98;9.23;;;;;;;5.81;100.00;101047.95;1704100;82;21066;-93
2023/01/03 05:49:44;;;;;;;16.25;8.08;;;;;;;5.86;100.00;101054.55;1705656;83;21014;-92
2023/01/03 05:52:29;;;;;;;15.55;7.37;;;;;;;5.81;100.00;101053.88;1707067;82;21470;-92
2023/01/03 05:55:14;;;;;;;16.32;8.08;;;;;;;5.84;100.00;101052.09;1698775;83;21047;-92
2023/01/03 05:57:59;;;;;;;17.70;9.43;;;;;;;5.87;100.00;101050.25;1712136;82;21050;-92
2023/01/03 06:00:43;;;;;;;18.27;8.45;;;;;;;5.77;100.00;101049.47;1705921;81;21034;-90
2023/01/03 06:03:28;;;;;;;15.50;7.47;;;;;;;5.90;100.00;101044.36;1705309;82;21493;-91
2023/01/03 06:06:14;;;;;;;18.23;8.88;;;;;;;5.89;100.00;101052.21;1708063;82;21267;-91
2023/01/03 06:08:59;;;;;;;14.63;7.83;;;;;;;5.93;100.00;101057.44;1704476;84;21050;-91
2023/01/03 06:11:43;;;;;;;15.45;7.85;;;;;;;5.95;100.00;101048.58;1708142;81;21620;-91
2023/01/03 06:14:27;;;;;;;14.75;7.40;;;;;;;5.95;100.00;101047.22;1682589;83;20999;-92
2023/01/03 06:20:16;;;;;;;15.70;7.78;;;;;;;5.89;100.00;101063.06;1685889;84;21244;-91
2023/01/03 06:23:00;;;;;;;16.45;8.28;;;;;;;6.00;100.00;101062.27;1702037;83;21069;-91
2023/01/03 06:25:45;;;;;;;15.35;7.45;;;;;;;6.04;100.00;101053.14;1705611;83;21031;-91
2023/01/03 06:28:30;;;;;;;16.77;8.08;;;;;;;5.94;100.00;101057.79;1709129;82;21597;-92
2023/01/03 06:31:15;;;;;;;16.07;8.63;;;;;;;6.07;100.00;101058.63;1704788;83;21003;-92
2023/01/03 06:34:02;;;;;;;15.08;7.78;;;;;;;6.16;100.00;101066.73;1700539;82;21062;-92
2023/01/03 06:36:47;;;;;;;16.25;8.10;;;;;;;6.14;100.00;101060.70;1705792;84;21070;-90
2023/01/03 06:39:32;;;;;;;16.02;8.20;;;;;;;6.19;100.00;101057.57;1705027;82;21599;-90
2023/01/03 06:54:32;;;;;;;15.48;7.87;;;;;;;6.33;100.00;101080.40;1744501;80;20986;-92
2023/01/03 06:57:16;;;;;;;16.73;8.13;;;;;;;6.35;100.00;101077.74;1708778;82;20975;-90
2023/01/03 07:00:02;;;;;;;15.55;8.43;;;;;;;6.42;100.00;101083.06;1702989;82;21961;-89
2023/01/03 07:02:46;;;;;;;14.75;7.72;;;;;;;6.48;100.00;101089.43;1705016;81;21711;-90
2023/01/03 07:05:31;;;;;;;16.75;8.10;;;;;;;6.48;100.00;101086.20;1728821;81;21044;-90
2023/01/03 07:08:18;;;;;;;15.43;7.95;;;;;;;6.50;100.00;101085.95;1730543;82;20922;-90
2023/01/03 07:11:03;;;;;;;14.73;8.35;;;;;;;6.53;100.00;101071.89;1736888;81;21002;-90
2023/01/03 07:13:59;;;;;;;16.00;8.58;;;;;;;6.63;100.00;101068.08;1723742;82;20988;-91
2023/01/03 07:16:45;;;;;;;20.08;9.35;;;;;;;6.68;100.00;101058.14;1728556;81;21497;-91
2023/01/03 07:19:30;;;;;;;16.00;8.45;;;;;;;6.82;100.00;101064.12;1710721;81;21017;-91
2023/01/03 07:22:14;;;;;;;15.75;8.43;;;;;;;6.86;100.00;101070.73;1733414;81;21004;-92
2023/01/03 07:24:59;;;;;;;16.82;9.15;;;;;;;6.82;100.00;101068.73;1696817;82;21048;-91
2023/01/03 07:27:44;;;;;;;15.80;8.13;;;;;;;6.84;100.00;101067.43;1695953;82;20995;-91
2023/01/03 07:30:29;;;;;;;18.85;9.58;;;;;;;6.95;100.00;101071.72;1698061;82;20999;-91
2023/01/03 07:33:14;;;;;;;16.17;8.08;;;;;;;6.95;100.00;101071.72;1696693;83;21736;-90
2023/01/03 07:36:00;;;;;;;16.82;8.05;;;;;;;6.78;100.00;101079.27;1692236;82;20983;-91
2023/01/03 07:38:45;;;;;;;14.23;7.75;;;;;;;6.85;100.00;101067.73;1678135;84;21086;-91
2023/01/03 07:44:33;;;;;;;;;;;;;;;6.98;100.00;101070.72;1700046;82;21008;-92
2023/01/03 07:47:18;;;;;;;17.67;7.72;;;;;;;7.08;100.00;101073.64;1695198;82;20154;-90
2023/01/03 07:50:04;;;;;;;15.48;8.70;;;;;;;7.13;100.00;101078.36;1704219;82;20996;-91
2023/01/03 07:52:49;;;;;;;15.10;8.55;;;;;;;7.16;100.00;101075.15;1691087;82;21023;-90
2023/01/03 07:55:35;;;;;;;18.55;8.73;;;;;;;7.24;100.00;101077.48;1699248;84;22017;-91
2023/01/03 07:58:20;;;;;;;17.12;8.25;;;;;;;7.14;100.00;101081.36;1662145;84;21582;-91
2023/01/03 08:01:22;;;;;;;18.62;8.90;;;;;;;7.26;100.00;101080.78;1698088;82;21031;-92
2023/01/03 08:04:07;;;;;;;15.48;8.45;;;;;;;7.38;100.00;101075.30;1697558;83;21582;-90
2023/01/03 08:06:52;;;;;;;15.45;8.03;;;;;;;7.42;100.00;101076.48;1697292;82;21088;-92
2023/01/03 08:15:54;;;;;;;15.75;8.28;;;;;;;7.53;100.00;101063.89;1693263;82;21887;-90
2023/01/03 08:18:39;;;;;;;16.80;8.58;;;;;;;7.57;100.00;101067.78;1689216;82;21004;-92
2023/01/03 08:21:24;;;;;;;14.50;8.18;;;;;;;7.67;100.00;101061.70;1674607;82;21057;-90
2023/01/03 08:24:09;;;;;;;16.87;8.45;;;;;;;7.78;100.00;101060.80;1749776;81;21041;-94
2023/01/03 08:26:54;;;;;;;14.53;8.25;;;;;;;7.89;100.00;101065.89;1736753;80;21104;-91
2023/01/03 08:29:39;;;;;;;12.85;7.72;;;;;;;8.05;100.00;101064.23;1692130;83;21113;-91
2023/01/03 08:32:30;;;;;;;15.00;8.53;;;;;;;8.13;100.00;101057.83;1692858;83;21018;-90
2023/01/03 08:35:16;;;;;;;17.17;8.50;;;;;;;8.17;100.00;101054.91;1753172;80;21491;-91
2023/01/03 08:38:16;;;;;;;13.32;7.70;;;;;;;8.33;100.00;101047.81;1753428;80;22144;-91
2023/01/03 08:41:04;;;;;;;;;;;;;;;8.50;100.00;101045.61;1759939;80;21461;-90
2023/01/03 08:43:49;;;;;;;14.58;8.13;;;;;;;8.85;100.00;101044.44;1767394;78;20513;-90
2023/01/03 08:46:39;;;;;;;15.10;8.58;;;;;;;8.76;100.00;101052.24;1752141;79;21451;-93
2023/01/03 08:49:24;;;;;;;13.13;7.67;;;;;;;8.80;100.00;101041.95;1752125;79;21381;-90
2023/01/03 08:52:08;;;;;;;13.65;7.90;;;;;;;8.82;100.00;101030.78;1749032;79;20993;-90
2023/01/03 08:54:53;;;;;;;14.93;7.95;;;;;;;8.89;100.00;101032.77;1743482;80;21079;-90
2023/01/03 08:57:39;;;;;;;12.35;6.72;;;;;;;8.93;100.00;101016.20;1753577;79;20939;-92
2023/01/03 09:00:23;;;;;;;13.08;7.70;;;;;;;9.06;100.00;101013.63;1752884;81;20967;-93
2023/01/03 09:03:08;;;;;;;14.28;7.90;;;;;;;9.10;100.00;101012.56;1753987;79;21429;-92
2023/01/03 09:05:53;;;;;;;14.20;7.55;;;;;;;9.13;100.00;101017.53;1756311;81;20982;-92
2023/01/03 09:08:38;;;;;;;13.80;7.65;;;;;;;9.25;100.00;101022.30;1756341;80;20991;-91
2023/01/03 09:11:23;;;;;;;14.38;7.87;;;;;;;9.33;100.00;101020.46;1758640;81;21192;-91
2023/01/03 09:14:08;;;;;;;23.85;10.55;;;;;;;9.46;100.00;101021.41;1749517;80;20978;-93
2023/01/03 09:16:53;;;;;;;14.47;7.65;;;;;;;9.57;100.00;101013.31;1707856;81;21047;-93
2023/01/03 09:19:38;;;;;;;12.33;7.70;;;;;;;9.64;100.00;101007.10;1722188;81;21022;-91
2023/01/03 09:22:23;;;;;;;13.35;7.12;;;;;;;9.73;100.00;100997.91;1752081;79;21710;-91
2023/01/03 09:25:08;;;;;;;12.73;7.10;;;;;;;9.79;100.00;101003.16;1742864;81;21025;-91
2023/01/03 09:27:53;;;;;;;13.10;7.30;;;;;;;9.73;100.00;101006.91;1741478;81;20856;-91
2023/01/03 09:30:38;;;;;;;12.70;7.03;;;;;;;9.77;100.00;101003.14;1757798;81;21002;-90
2023/01/03 09:33:24;;;;;;;13.70;7.53;;;;;;;9.84;100.00;101003.20;1755100;79;20994;-91
2023/01/03 09:36:10;;;;;;;11.78;7.08;;;;;;;9.92;100.00;101005.17;1683725;83;21113;-92
2023/01/03 09:38:55;;;;;;;13.10;7.70;;;;;;;10.07;100.00;100990.26;1695792;81;21042;-91
2023/01/03 09:41:40;;;;;;;12.15;6.87;;;;;;;10.12;100.00;100987.55;1650979;83;21140;-90
2023/01/03 09:44:25;;;;;;;13.62;7.45;;;;;;;10.19;100.00;100985.42;1670862;84;21045;-90
2023/01/03 09:47:18;;;;;;;13.70;7.12;;;;;;;10.25;100.00;100978.89;1653908;85;21030;-90
2023/01/03 09:50:03;;;;;;;15.65;7.22;;;;;;;10.20;100.00;100976.13;1667996;83;21015;-90
2023/01/03 10:05:58;;;;;;;13.13;6.83;;;;;;;10.75;100.00;100946.63;1671977;84;21084;-91
2023/01/03 10:09:05;;;;;;;11.50;6.75;;;;;;;10.84;100.00;100939.56;1662017;86;21083;-91
2023/01/03 10:12:08;;;;;;;12.93;7.30;;;;;;;10.84;100.00;100941.48;1729617;81;21002;-91
2023/01/03 10:15:36;;;;;;;11.33;6.92;;;;;;;10.83;100.00;100952.96;1728570;82;21065;-92
2023/01/03 10:18:52;;;;;;;11.33;6.95;;;;;;;10.85;100.00;100937.64;1668438;84;21066;-93
2023/01/03 10:21:51;;;;;;;12.25;6.55;;;;;;;10.75;100.00;100933.78;1687479;83;21007;-90
2023/01/03 10:24:43;;;;;;;11.35;6.92;;;;;;;10.78;100.00;100945.27;1724876;80;21006;-92
2023/01/03 10:27:33;;;;;;;12.68;6.65;;;;;;;10.68;100.00;100935.12;1725008;81;21006;-91
2023/01/03 10:30:22;;;;;;;11.48;6.90;;;;;;;10.76;100.00;100945.00;1732000;80;21197;-92
2023/01/03 10:33:32;;;;;;;11.60;6.83;;;;;;;10.81;100.00;100950.22;1709581;82;21019;-92
2023/01/03 10:36:19;;;;;;;12.63;7.30;;;;;;;10.82;100.00;100940.91;1723069;81;21021;-92
2023/01/03 10:39:07;;;;;;;14.18;7.35;;;;;;;10.74;100.00;100952.64;1732203;80;21467;-92
2023/01/03 10:41:55;;;;;;;16.30;7.55;;;;;;;10.69;100.00;100959.46;1703801;82;20990;-91
2023/01/03 10:44:40;;;;;;;12.28;7.45;;;;;;;10.62;100.00;100965.72;1682083;82;21542;-92
2023/01/03 10:47:25;;;;;;;13.10;7.87;;;;;;;10.71;100.00;100960.02;1666785;83;20991;-91
2023/01/03 10:50:21;;;;;;;13.15;7.22;;;;;;;10.78;100.00;100961.15;1671904;84;21018;-92
2023/01/03 10:53:07;;;;;;;12.43;7.42;;;;;;;10.75;100.00;100958.38;1700347;82;21013;-91
2023/01/03 10:55:52;;;;;;;10.72;6.55;;;;;;;10.67;100.00;100972.56;1717794;80;21047;-92
2023/01/03 10:58:37;;;;;;;15.83;8.18;;;;;;;10.71;100.00;100972.32;1707935;83;20994;-91
2023/01/03 11:01:28;;;;;;;12.88;7.65;;;;;;;10.76;100.00;100969.61;1743965;80;21041;-91
2023/01/03 11:04:17;;;;;;;12.55;7.10;;;;;;;10.81;100.00;100963.89;1656508;85;21025;-90
2023/01/03 11:07:12;;;;;;;14.55;7.53;;;;;;;10.92;100.00;100958.71;1706276;82;20986;-93
2023/01/03 11:09:57;;;;;;;14.18;8.33;;;;;;;10.91;100.00;100952.43;1715920;81;21495;-90
2023/01/03 11:12:41;;;;;;;14.00;7.03;;;;;;;11.06;100.00;100946.73;1702485;82;21007;-91
2023/01/03 11:15:38;;;;;;;12.33;6.95;;;;;;;11.12;100.00;100945.08;1729267;82;21010;-90
2023/01/03 11:18:24;;;;;;;13.50;7.78;;;;;;;11.18;100.00;100953.58;1703935;83;21022;-88
2023/01/03 11:21:23;;;;;;;11.90;7.22;;;;;;;11.23;100.00;100947.30;1689090;83;21540;-89
2023/01/03 11:24:34;;;;;;;12.60;7.75;;;;;;;11.22;100.00;100941.53;1728256;81;21003;-89
2023/01/03 11:28:03;;;;;;;12.68;8.05;;;;;;;11.23;100.00;100945.13;1741977;82;21057;-88
2023/01/03 11:30:59;;;;;;;12.00;7.70;;;;;;;11.12;100.00;100941.53;1737088;80;21023;-89
2023/01/03 11:34:12;;;;;;;12.88;8.05;;;;;;;11.08;100.00;100942.63;1740943;82;21017;-90
2023/01/03 11:37:20;;;;;;;11.78;7.30;;;;;;;11.25;100.00;100938.80;1723049;81;21059;-89
2023/01/03 11:40:16;;;;;;;15.90;8.20;;;;;;;11.29;100.00;100948.13;1740354;81;21034;-90
2023/01/03 11:43:55;;;;;;;16.67;8.58;;;;;;;11.22;100.00;100947.01;1759321;80;21392;-89
2023/01/03 11:47:06;;;;;;;13.08;8.35;;;;;;;11.31;100.00;100953.59;1714166;82;21074;-89
2023/01/03 11:50:26;;;;;;;12.53;6.85;;;;;;;11.22;100.00;100947.56;1753967;80;20983;-90
2023/01/03 11:53:39;;;;;;;12.95;7.67;;;;;;;11.30;100.00;100941.55;1748314;81;21077;-89
2023/01/03 11:56:43;;;;;;;14.30;7.22;;;;;;;11.42;100.00;100944.84;1693633;81;21015;-90
2023/01/03 11:59:53;;;;;;;12.68;7.58;;;;;;;11.42;100.00;100950.31;1732542;81;21025;-90
2023/01/03 12:03:04;;;;;;;12.55;6.90;;;;;;;11.48;100.00;100945.13;1774015;78;20967;-89
2023/01/03 12:06:12;;;;;;;11.78;7.40;;;;;;;11.48;100.00;100953.34;1716627;83;21162;-90
2023/01/03 12:09:23;;;;;;;12.95;7.05;;;;;;;11.51;100.00;100959.63;1694178;83;20984;-91
2023/01/03 12:13:01;;;;;;;12.25;7.30;;;;;;;11.62;100.00;100961.28;1671364;84;20999;-90
2023/01/03 12:16:01;;;;;;;14.83;7.95;;;;;;;11.60;100.00;100959.36;1652052;84;21096;-91
2023/01/03 12:19:33;;;;;;;13.08;7.17;;;;;;;11.58;100.00;100951.97;1757408;79;20959;-92
2023/01/03 12:22:36;;;;;;;14.33;7.95;;;;;;;11.47;100.00;100958.52;1738028;81;21264;-92
2023/01/03 12:25:32;;;;;;;14.00;7.53;;;;;;;11.47;100.00;100956.34;1759831;79;20974;-92
2023/01/03 12:28:42;;;;;;;13.58;7.05;;;;;;;11.50;100.00;100963.99;1757380;80;20990;-91
2023/01/03 12:31:31;;;;;;;14.43;7.10;;;;;;;11.45;100.00;100971.68;1752210;80;21458;-92
2023/01/03 12:34:31;;;;;;;12.20;7.20;;;;;;;11.47;100.00;100970.83;1750149;80;21380;-92
2023/01/03 12:37:22;;;;;;;11.90;7.42;;;;;;;11.29;100.00;100972.75;1707439;83;21030;-92
2023/01/03 12:40:24;;;;;;;14.03;6.95;;;;;;;11.26;100.00;100974.11;1709630;81;21669;-92
2023/01/03 12:43:26;;;;;;;12.18;7.33;;;;;;;11.30;100.00;100985.31;1687936;83;21028;-92
2023/01/03 12:46:17;;;;;;;12.88;7.45;;;;;;;11.39;100.00;100990.54;1697135;82;21018;-92
2023/01/03 12:49:23;;;;;;;14.60;7.93;;;;;;;11.39;100.00;100997.38;1742269;81;21101;-91
2023/01/03 12:52:13;;;;;;;12.75;7.53;;;;;;;11.41;100.00;101000.12;1734866;80;21131;-91
2023/01/03 12:55:07;;;;;;;12.65;6.70;;;;;;;11.37;100.00;101003.66;1654339;83;21030;-91
2023/01/03 12:58:09;;;;;;;19.20;7.75;;;;;;;11.35;100.00;101003.11;1695937;81;21015;-90
2023/01/03 13:00:58;;;;;;;14.77;7.97;;;;;;;11.30;100.00;101003.10;1722659;81;21030;-91
2023/01/03 13:03:49;;;;;;;14.03;6.95;;;;;;;11.29;100.00;101006.94;1716302;82;21227;-91
2023/01/03 13:06:36;;;;;;;15.63;7.90;;;;;;;11.31;100.00;101010.23;1692068;83;20988;-91
2023/01/03 13:09:34;;;;;;;13.03;7.70;;;;;;;11.27;100.00;101015.41;1712526;82;21022;-92
2023/01/03 13:12:20;;;;;;;12.90;6.35;;;;;;;11.13;100.00;101019.22;1712341;82;20993;-90
2023/01/03 13:15:27;;;;;;;18.27;7.72;;;;;;;11.17;100.00;101017.57;1725075;81;21069;-91
2023/01/03 13:18:26;;;;;;;13.20;7.28;;;;;;;11.23;100.00;101027.19;1705071;82;20981;-92
2023/01/03 13:21:53;;;;;;;13.65;7.85;;;;;;;11.24;100.00;101026.08;1711227;82;21476;-92
2023/01/03 13:24:50;;;;;;;13.98;7.17;;;;;;;11.18;100.00;101040.30;1702490;83;21064;-91
2023/01/03 13:27:36;;;;;;;14.70;8.38;;;;;;;11.13;100.00;101046.58;1752715;80;21001;-92
2023/01/03 13:30:29;;;;;;;18.40;8.68;;;;;;;11.19;100.00;101050.95;1694011;83;21084;-91
2023/01/03 13:33:19;;;;;;;17.98;9.03;;;;;;;11.11;100.00;101058.32;1748829;81;20987;-92
2023/01/03 13:36:04;;;;;;;18.55;9.38;;;;;;;11.09;100.00;101060.50;1749234;80;20970;-94
2023/01/03 13:38:50;;;;;;;15.30;8.23;;;;;;;10.97;100.00;101068.92;1748849;79;21064;-92
2023/01/03 13:41:37;;;;;;;17.92;8.73;;;;;;;10.95;100.00;101073.02;1731121;79;21021;-90
2023/01/03 13:44:23;;;;;;;15.48;8.53;;;;;;;10.93;100.00;101079.31;1709254;82;21014;-89
2023/01/03 13:47:22;;;;;;;18.45;9.33;;;;;;;10.88;100.00;101090.20;1695753;82;21029;-90
2023/01/03 13:50:32;;;;;;;17.37;8.55;;;;;;;10.83;100.00;101087.44;1725348;82;21037;-89
2023/01/03 13:53:26;;;;;;;21.87;9.40;;;;;;;10.71;100.00;101088.48;1747604;79;20933;-90
2023/01/03 13:56:19;;;;;;;21.97;12.60;;;;;;;10.70;100.00;101090.11;1728711;81;22375;-90
2023/01/03 16:02:16;;;;;;;25.27;12.98;;;;;;;6.90;100.00;101190.64;1806957;77;23256;-86
2023/01/03 16:05:01;;;;;;;24.07;12.82;;;;;;;6.98;100.00;101194.35;1709398;82;20998;-86
2023/01/03 16:07:48;;;;;;;20.72;12.07;;;;;;;7.18;100.00;101200.77;1702132;83;21070;-86
2023/01/03 16:10:34;;;;;;;20.20;11.63;;;;;;;7.32;100.00;101204.89;1707978;82;21089;-87
2023/01/03 16:13:19;;;;;;;18.90;10.03;;;;;;;7.50;100.00;101205.80;1704084;82;21010;-86